Time;durP1;ratioP1;P1;durP2;ratioP2;P2;SDS_P1;SDS_P2;PMS_P1;PMS_P2;Temp;Humidity;BMP_temperature;BMP_pressure;BME280_temperature;BME280_humidity;BME280_pressure;Samples;Min_cycle;Max_cycle;Signal;HPM_P1;HPM_P2
2022/02/14 00:00:41;;;;;;;15.32;8.45;;;1.80;70.20;;;;;;5117348;28;20032;-40
2022/02/14 00:03:07;;;;;;;14.73;7.75;;;1.80;70.20;;;;;;5116653;28;20049;-35
2022/02/14 00:05:33;;;;;;;16.05;8.32;;;1.80;70.20;;;;;;5117402;28;20044;-35
2022/02/14 00:07:59;;;;;;;12.27;7.80;;;1.80;70.30;;;;;;5116799;28;20039;-35
2022/02/14 00:10:25;;;;;;;14.57;7.95;;;1.70;70.30;;;;;;5116647;28;20038;-38
2022/02/14 00:12:51;;;;;;;17.40;7.97;;;1.70;70.50;;;;;;5116935;28;20084;-35
2022/02/14 00:15:18;;;;;;;14.88;7.38;;;1.70;70.50;;;;;;5116796;28;20036;-36
2022/02/14 00:17:44;;;;;;;13.00;7.60;;;1.70;70.50;;;;;;5116800;28;20028;-38
2022/02/14 00:20:10;;;;;;;13.27;7.95;;;1.60;70.50;;;;;;5117019;28;20035;-35
2022/02/14 00:22:36;;;;;;;23.63;8.00;;;1.60;70.50;;;;;;5116388;28;20034;-40
2022/02/14 00:25:03;;;;;;;15.13;8.05;;;1.60;70.60;;;;;;5116610;28;20415;-38
2022/02/14 00:27:29;;;;;;;16.83;8.20;;;1.60;70.70;;;;;;5116485;28;20029;-39
2022/02/14 00:29:54;;;;;;;21.70;8.23;;;1.60;70.70;;;;;;5116788;28;20038;-36
2022/02/14 00:32:20;;;;;;;17.23;7.05;;;1.60;70.70;;;;;;5116283;28;20114;-38
2022/02/14 00:34:47;;;;;;;15.23;7.32;;;1.60;70.70;;;;;;5116662;28;20297;-35
2022/02/14 00:37:13;;;;;;;13.65;7.38;;;1.60;70.70;;;;;;5116612;28;20123;-38
2022/02/14 00:39:39;;;;;;;13.43;7.50;;;1.60;70.60;;;;;;5116730;28;20372;-35
2022/02/14 00:42:06;;;;;;;13.93;6.97;;;1.60;70.70;;;;;;5116290;28;20110;-38
2022/02/14 00:44:32;;;;;;;19.45;7.45;;;1.50;70.70;;;;;;5116581;28;20039;-39
2022/02/14 00:46:57;;;;;;;14.82;7.63;;;1.50;70.80;;;;;;5115989;28;20038;-38
2022/02/14 00:49:23;;;;;;;17.88;7.47;;;1.60;70.90;;;;;;5116298;28;20024;-35
2022/02/14 00:51:49;;;;;;;13.05;7.10;;;1.60;70.80;;;;;;5119014;28;20047;-36
2022/02/14 00:54:15;;;;;;;17.23;7.80;;;1.60;70.90;;;;;;5120953;28;20020;-36
2022/02/14 00:56:41;;;;;;;12.85;7.40;;;1.60;70.80;;;;;;5120150;28;20028;-35
2022/02/14 00:59:07;;;;;;;20.52;7.88;;;1.60;70.80;;;;;;5120109;28;20038;-36
2022/02/14 01:01:32;;;;;;;13.35;8.35;;;1.50;70.70;;;;;;5120392;28;20035;-35
2022/02/14 01:03:58;;;;;;;12.80;7.80;;;1.60;70.80;;;;;;5120321;28;20110;-37
2022/02/14 01:06:27;;;;;;;13.68;7.07;;;1.60;70.70;;;;;;5120762;28;20031;-36
2022/02/14 01:08:54;;;;;;;14.00;7.90;;;1.60;70.80;;;;;;5120275;28;20034;-38
2022/02/14 01:11:20;;;;;;;14.60;8.40;;;1.60;70.80;;;;;;5120818;28;20031;-35
2022/02/14 01:13:46;;;;;;;15.20;7.25;;;1.60;70.80;;;;;;5119999;28;20118;-40
2022/02/14 01:16:12;;;;;;;13.82;7.70;;;1.60;70.80;;;;;;5120748;28;20431;-38
2022/02/14 01:18:37;;;;;;;13.98;7.50;;;1.60;70.70;;;;;;5120255;28;20028;-35
2022/02/14 01:21:03;;;;;;;13.85;7.43;;;1.60;70.70;;;;;;5120375;28;20093;-40
2022/02/14 01:23:29;;;;;;;14.27;7.25;;;1.60;70.70;;;;;;5119973;28;20088;-36
2022/02/14 01:25:55;;;;;;;15.00;7.85;;;1.60;70.70;;;;;;5120378;28;20078;-38
2022/02/14 01:28:20;;;;;;;16.75;8.18;;;1.60;70.60;;;;;;5119774;28;20043;-39
2022/02/14 01:30:46;;;;;;;13.82;7.78;;;1.60;70.60;;;;;;5120141;28;20028;-35
2022/02/14 01:33:12;;;;;;;15.88;8.00;;;1.60;70.70;;;;;;5119559;28;20080;-38
2022/02/14 01:35:38;;;;;;;15.45;7.72;;;1.60;70.60;;;;;;5120059;28;20027;-36
2022/02/14 01:38:03;;;;;;;13.75;7.60;;;1.60;70.50;;;;;;5119550;27;20429;-35
2022/02/14 01:40:29;;;;;;;14.50;7.40;;;1.60;70.50;;;;;;5120161;28;20032;-35
2022/02/14 01:42:55;;;;;;;12.88;7.75;;;1.60;70.50;;;;;;5119711;28;20042;-36
2022/02/14 01:45:21;;;;;;;17.83;8.15;;;1.60;70.40;;;;;;5119755;28;20038;-35
2022/02/14 01:47:46;;;;;;;18.60;8.60;;;1.50;70.40;;;;;;5119307;28;20114;-38
2022/02/14 01:50:14;;;;;;;18.15;9.57;;;1.50;70.40;;;;;;5119517;28;20112;-38
2022/02/14 01:52:41;;;;;;;13.95;8.27;;;1.50;70.40;;;;;;5119604;28;20496;-38
2022/02/14 01:55:07;;;;;;;17.17;8.57;;;1.50;70.50;;;;;;5119549;28;20031;-38
2022/02/14 01:57:35;;;;;;;13.82;7.88;;;1.40;70.50;;;;;;5119204;28;20035;-38
2022/02/14 02:00:01;;;;;;;15.55;8.73;;;1.40;70.50;;;;;;5119517;28;20120;-39
2022/02/14 02:02:27;;;;;;;17.42;8.60;;;1.40;70.60;;;;;;5118778;28;20027;-35
2022/02/14 02:04:53;;;;;;;14.02;8.20;;;1.40;70.60;;;;;;5119383;28;20122;-38
2022/02/14 02:07:19;;;;;;;17.02;7.97;;;1.40;70.70;;;;;;5119304;28;20115;-35
2022/02/14 02:09:45;;;;;;;15.23;7.95;;;1.40;70.70;;;;;;5119208;28;20089;-38
2022/02/14 02:12:28;;;;;;;14.65;7.82;;;1.40;70.70;;;;;;5118940;28;20111;-35
2022/02/14 02:15:03;;;;;;;14.05;8.00;;;1.40;70.70;;;;;;5119418;28;20032;-38
2022/02/14 02:17:31;;;;;;;14.82;8.18;;;1.40;70.70;;;;;;5118737;28;20058;-38
2022/02/14 02:19:56;;;;;;;16.10;8.43;;;1.40;70.70;;;;;;5119132;28;20040;-37
2022/02/14 02:22:22;;;;;;;15.55;8.02;;;1.40;70.70;;;;;;5119024;28;20057;-36
2022/02/14 02:24:51;;;;;;;15.23;8.27;;;1.40;70.80;;;;;;5118850;28;20430;-36
2022/02/14 02:27:18;;;;;;;20.67;8.85;;;1.40;70.70;;;;;;5118826;28;20032;-38
2022/02/14 02:29:44;;;;;;;17.25;8.93;;;1.40;70.60;;;;;;5118984;28;20412;-38
2022/02/14 02:32:12;;;;;;;17.05;8.65;;;1.30;70.60;;;;;;5118408;28;20035;-40
2022/02/14 02:34:39;;;;;;;13.80;7.60;;;1.30;70.60;;;;;;5118930;28;20027;-38
2022/02/14 02:37:07;;;;;;;14.52;8.35;;;1.30;70.70;;;;;;5118762;28;20031;-39
2022/02/14 02:39:34;;;;;;;16.33;9.15;;;1.30;70.60;;;;;;5118787;28;20055;-38
2022/02/14 02:42:02;;;;;;;16.50;7.82;;;1.30;70.60;;;;;;5118620;28;20142;-40
2022/02/14 02:44:27;;;;;;;14.77;8.60;;;1.30;70.50;;;;;;5118724;28;20115;-40
2022/02/14 02:46:53;;;;;;;17.63;8.75;;;1.30;70.50;;;;;;5117918;28;20131;-39
2022/02/14 02:49:23;;;;;;;18.70;8.90;;;1.20;70.50;;;;;;5118635;28;20058;-39
2022/02/14 02:51:51;;;;;;;15.15;7.95;;;1.30;70.60;;;;;;5118016;28;20332;-39
2022/02/14 02:54:18;;;;;;;15.52;8.70;;;1.20;70.60;;;;;;5118352;28;20477;-37
2022/02/14 02:56:45;;;;;;;16.05;8.85;;;1.20;70.60;;;;;;5118443;28;20020;-35
2022/02/14 02:59:12;;;;;;;15.55;8.65;;;1.20;70.60;;;;;;5118148;28;20237;-35
2022/02/14 03:01:38;;;;;;;17.42;9.60;;;1.20;70.60;;;;;;5118042;28;20023;-36
2022/02/14 03:04:06;;;;;;;15.02;8.15;;;1.10;70.70;;;;;;5118070;28;20023;-35
2022/02/14 03:06:32;;;;;;;16.65;8.50;;;1.10;70.70;;;;;;5117918;28;20324;-36
2022/02/14 03:08:58;;;;;;;21.05;9.15;;;1.10;70.80;;;;;;5117594;28;20024;-36
2022/02/14 03:11:24;;;;;;;16.92;8.60;;;1.10;70.90;;;;;;5118411;28;20260;-35
2022/02/14 03:13:50;;;;;;;17.15;8.60;;;1.00;71.00;;;;;;5116911;28;20319;-35
2022/02/14 03:16:16;;;;;;;16.65;8.23;;;1.00;71.20;;;;;;5118161;27;20039;-35
2022/02/14 03:18:42;;;;;;;15.23;8.65;;;0.90;71.20;;;;;;5117544;28;20098;-38
2022/02/14 03:21:09;;;;;;;15.57;8.55;;;0.90;71.30;;;;;;5118074;28;20032;-36
2022/02/14 03:23:35;;;;;;;15.48;7.88;;;0.90;71.40;;;;;;5117607;28;20415;-35
2022/02/14 03:26:01;;;;;;;16.42;8.80;;;0.90;71.40;;;;;;5117907;28;20319;-40
2022/02/14 03:28:27;;;;;;;15.65;8.02;;;0.90;71.50;;;;;;5117493;28;20016;-35
2022/02/14 03:30:54;;;;;;;16.70;8.88;;;0.90;71.50;;;;;;5117771;28;20036;-35
2022/02/14 03:33:19;;;;;;;15.18;8.73;;;0.80;71.50;;;;;;5117615;28;20409;-35
2022/02/14 03:35:46;;;;;;;14.00;7.80;;;0.80;71.50;;;;;;5117589;28;20055;-35
2022/02/14 03:38:12;;;;;;;16.65;9.00;;;0.80;71.50;;;;;;5117110;28;20404;-35
2022/02/14 03:40:38;;;;;;;18.83;9.38;;;0.80;71.60;;;;;;5117749;28;20035;-35
2022/02/14 03:43:06;;;;;;;17.23;8.00;;;0.80;71.60;;;;;;5117494;28;20149;-36
2022/02/14 03:45:33;;;;;;;19.10;8.02;;;0.70;71.60;;;;;;5117589;28;20361;-38
2022/02/14 03:48:00;;;;;;;12.98;7.32;;;0.70;71.70;;;;;;5117277;28;20080;-35
2022/02/14 03:50:26;;;;;;;15.80;8.07;;;0.70;71.80;;;;;;5116885;28;20317;-35
2022/02/14 03:52:52;;;;;;;16.05;8.50;;;0.70;72.40;;;;;;5117024;28;20423;-39
2022/02/14 03:55:18;;;;;;;16.65;8.30;;;0.70;71.90;;;;;;5117359;28;20068;-35
2022/02/14 03:57:45;;;;;;;17.30;8.18;;;0.70;71.90;;;;;;5116793;28;20084;-40
2022/02/14 04:00:12;;;;;;;19.60;8.18;;;0.60;72.10;;;;;;5117337;28;20095;-35
2022/02/14 04:02:39;;;;;;;17.02;8.40;;;0.60;72.20;;;;;;5116728;28;20430;-35
2022/02/14 04:05:05;;;;;;;15.35;7.85;;;0.60;72.30;;;;;;5117208;28;20399;-35
2022/02/14 04:07:31;;;;;;;14.10;7.60;;;0.50;72.40;;;;;;5116713;28;20034;-36
2022/02/14 04:09:56;;;;;;;14.63;7.53;;;0.50;72.50;;;;;;5116926;28;20035;-36
2022/02/14 04:12:23;;;;;;;21.30;10.68;;;0.50;72.70;;;;;;5116560;28;20023;-36
2022/02/14 04:14:48;;;;;;;22.63;8.60;;;0.40;72.80;;;;;;5117084;28;20315;-36
2022/02/14 04:17:14;;;;;;;18.70;8.52;;;0.40;72.80;;;;;;5116549;28;20028;-40
2022/02/14 04:19:40;;;;;;;17.10;8.43;;;0.40;73.00;;;;;;5117108;28;20031;-35
2022/02/14 04:22:06;;;;;;;15.98;7.90;;;0.30;73.00;;;;;;5116827;28;20395;-35
2022/02/14 04:24:31;;;;;;;15.35;8.50;;;0.30;73.10;;;;;;5116834;28;20073;-39
2022/02/14 04:26:57;;;;;;;18.98;8.45;;;0.30;73.20;;;;;;5116208;28;20055;-38
2022/02/14 04:29:23;;;;;;;14.35;7.90;;;0.30;73.20;;;;;;5116408;28;20031;-38
2022/02/14 04:31:49;;;;;;;20.77;8.50;;;0.30;73.30;;;;;;5116621;28;20049;-40
2022/02/14 04:34:18;;;;;;;19.75;7.90;;;0.30;73.80;;;;;;5116568;28;20062;-35
2022/02/14 04:36:45;;;;;;;17.25;8.15;;;0.20;73.20;;;;;;5116444;28;20051;-38
2022/02/14 04:39:11;;;;;;;13.20;7.55;;;0.30;73.30;;;;;;5116608;28;20435;-35
2022/02/14 04:41:36;;;;;;;17.25;7.80;;;0.30;73.30;;;;;;5116667;28;20062;-38
2022/02/14 04:44:02;;;;;;;15.80;8.15;;;0.20;73.20;;;;;;5116405;28;20350;-38
2022/02/14 04:46:28;;;;;;;15.98;7.97;;;0.20;73.20;;;;;;5116597;28;20340;-38
2022/02/14 04:48:53;;;;;;;14.65;8.27;;;0.20;73.20;;;;;;5116176;28;20024;-35
2022/02/14 04:51:19;;;;;;;16.80;7.75;;;0.20;73.20;;;;;;5116212;28;20130;-35
2022/02/14 04:53:45;;;;;;;16.75;8.73;;;0.20;73.20;;;;;;5116018;28;20412;-39
2022/02/14 04:56:10;;;;;;;14.75;8.13;;;0.20;73.30;;;;;;5116697;28;20035;-38
2022/02/14 04:58:36;;;;;;;18.50;9.20;;;0.10;73.30;;;;;;5116033;28;20095;-35
2022/02/14 05:01:02;;;;;;;14.98;8.50;;;0.10;73.40;;;;;;5115923;28;20085;-35
2022/02/14 05:03:27;;;;;;;19.63;8.98;;;0.10;73.40;;;;;;5116082;28;20023;-35
2022/02/14 05:05:53;;;;;;;16.67;8.13;;;0.10;73.50;;;;;;5116448;28;20035;-35
2022/02/14 05:08:19;;;;;;;19.27;8.65;;;0.10;74.10;;;;;;5115827;28;20035;-38
2022/02/14 05:10:44;;;;;;;21.70;8.77;;;0.10;73.60;;;;;;5116370;28;20077;-35
2022/02/14 05:13:10;;;;;;;21.95;8.15;;;0.00;73.50;;;;;;5115742;28;20030;-36
2022/02/14 05:15:35;;;;;;;23.27;9.30;;;0.00;73.60;;;;;;5116216;28;20032;-38
2022/02/14 05:18:02;;;;;;;16.17;8.05;;;0.00;73.70;;;;;;5115723;28;20031;-39
2022/02/14 05:20:27;;;;;;;18.75;8.90;;;0.00;73.70;;;;;;5116533;28;20427;-35
2022/02/14 05:22:53;;;;;;;17.67;9.25;;;0.00;73.80;;;;;;5115612;28;20032;-38
2022/02/14 05:25:19;;;;;;;19.02;9.00;;;0.00;73.80;;;;;;5116203;28;20347;-38
2022/02/14 05:27:44;;;;;;;17.58;8.50;;;0.00;73.90;;;;;;5115594;28;20031;-36
2022/02/14 05:30:10;;;;;;;21.35;8.98;;;0.00;73.90;;;;;;5116103;28;20024;-38
2022/02/14 05:32:36;;;;;;;18.52;8.85;;;0.00;74.00;;;;;;5115614;28;20110;-38
2022/02/14 05:35:02;;;;;;;23.08;11.25;;;0.00;74.00;;;;;;5114656;28;20051;-38
2022/02/14 05:37:28;;;;;;;18.83;8.88;;;0.00;74.00;;;;;;5117698;28;20039;-35
2022/02/14 05:39:54;;;;;;;17.42;8.93;;;0.00;74.10;;;;;;5119866;28;20129;-35
2022/02/14 05:42:20;;;;;;;22.88;9.55;;;0.00;74.10;;;;;;5119536;28;20476;-39
2022/02/14 05:44:45;;;;;;;18.08;8.55;;;0.00;74.10;;;;;;5118870;28;20031;-35
2022/02/14 05:47:11;;;;;;;20.48;9.57;;;0.00;74.20;;;;;;5118065;28;20038;-35
2022/02/14 05:49:37;;;;;;;18.73;8.70;;;0.00;74.20;;;;;;5119251;28;20031;-37
2022/02/14 05:52:04;;;;;;;17.05;8.88;;;0.00;74.30;;;;;;5118942;28;20498;-35
2022/02/14 05:54:29;;;;;;;19.35;9.63;;;0.00;74.30;;;;;;5119298;28;20411;-38
2022/02/14 05:56:55;;;;;;;19.38;8.80;;;0.00;74.30;;;;;;5118938;28;20023;-38
2022/02/14 05:59:21;;;;;;;22.13;10.60;;;0.00;74.40;;;;;;5119049;27;20028;-38
2022/02/14 06:01:46;;;;;;;17.23;8.75;;;0.00;74.60;;;;;;5119156;28;20023;-38
2022/02/14 06:04:12;;;;;;;17.05;9.52;;;0.00;74.60;;;;;;5119277;28;20029;-38
2022/02/14 06:06:38;;;;;;;19.02;8.45;;;0.00;74.70;;;;;;5118932;27;20031;-35
2022/02/14 06:09:04;;;;;;;17.90;9.50;;;0.10;74.70;;;;;;5118936;28;20020;-38
2022/02/14 06:11:30;;;;;;;24.70;8.48;;;0.10;74.70;;;;;;5117592;28;20176;-39
2022/02/14 06:13:56;;;;;;;20.60;9.15;;;0.10;74.60;;;;;;5118677;28;20077;-35
2022/02/14 06:16:21;;;;;;;20.00;9.00;;;0.20;74.70;;;;;;5119140;28;20350;-39
2022/02/14 06:18:47;;;;;;;23.63;9.38;;;0.20;74.70;;;;;;5118111;28;20031;-39
2022/02/14 06:21:13;;;;;;;18.52;8.77;;;0.20;74.70;;;;;;5119112;28;20118;-38
2022/02/14 06:23:38;;;;;;;17.85;8.48;;;0.30;74.70;;;;;;5118434;28;20026;-39
2022/02/14 06:26:05;;;;;;;18.17;8.80;;;0.40;74.60;;;;;;5118609;28;20030;-38
2022/02/14 06:28:37;;;;;;;15.70;8.38;;;0.40;74.50;;;;;;5115900;28;20215;-40
2022/02/14 06:31:03;;;;;;;17.77;10.65;;;0.50;74.40;;;;;;5118686;28;20051;-39
2022/02/14 06:33:29;;;;;;;21.45;9.18;;;0.60;74.20;;;;;;5117133;28;20390;-35
2022/02/14 06:35:54;;;;;;;21.00;9.23;;;0.70;74.10;;;;;;5118002;28;20127;-38
2022/02/14 06:38:20;;;;;;;20.02;8.70;;;0.70;73.80;;;;;;5117960;28;20055;-35
2022/02/14 06:40:46;;;;;;;24.35;10.10;;;0.80;73.60;;;;;;5114992;28;20115;-38
2022/02/14 06:43:11;;;;;;;17.80;7.93;;;0.90;73.50;;;;;;5117969;28;20361;-35
2022/02/14 06:45:37;;;;;;;17.23;8.65;;;1.00;73.30;;;;;;5117990;28;20035;-36
2022/02/14 06:48:03;;;;;;;21.05;9.25;;;1.00;73.00;;;;;;5114201;28;20028;-39
2022/02/14 06:50:28;;;;;;;16.67;8.05;;;1.10;72.70;;;;;;5117682;28;20408;-40
2022/02/14 06:52:54;;;;;;;21.58;9.70;;;1.20;72.30;;;;;;5117813;28;20024;-39
2022/02/14 06:55:20;;;;;;;20.65;9.13;;;1.20;72.30;;;;;;5117763;28;20164;-36
2022/02/14 06:57:46;;;;;;;15.63;7.93;;;1.30;72.10;;;;;;5117596;28;20032;-40
2022/02/14 07:00:14;;;;;;;20.08;9.10;;;1.30;71.70;;;;;;5117534;28;20095;-40
2022/02/14 07:02:41;;;;;;;21.60;10.68;;;1.30;71.40;;;;;;5117370;28;20034;-36
2022/02/14 07:05:08;;;;;;;20.45;10.95;;;1.40;71.40;;;;;;5117892;28;20032;-39
2022/02/14 07:07:34;;;;;;;21.35;10.15;;;1.40;71.70;;;;;;5117714;28;20150;-36
2022/02/14 07:10:00;;;;;;;18.52;8.95;;;1.50;71.80;;;;;;5116978;28;20535;-40
2022/02/14 07:12:26;;;;;;;18.30;10.15;;;1.50;71.20;;;;;;5116560;28;20408;-35
2022/02/14 07:14:51;;;;;;;18.73;8.65;;;1.60;71.00;;;;;;5112716;28;20104;-39
2022/02/14 07:17:17;;;;;;;20.08;8.98;;;1.70;70.90;;;;;;5116910;28;20088;-39
2022/02/14 07:19:43;;;;;;;23.35;10.05;;;1.70;70.40;;;;;;5115048;28;20039;-40
2022/02/14 07:22:09;;;;;;;18.40;8.98;;;1.80;70.40;;;;;;5116717;28;20097;-39
2022/02/14 07:24:34;;;;;;;21.48;11.23;;;1.80;70.10;;;;;;5116590;28;20035;-39
2022/02/14 07:27:00;;;;;;;24.08;10.90;;;1.80;69.80;;;;;;5116456;28;20046;-40
2022/02/14 07:29:26;;;;;;;20.65;9.50;;;1.90;69.60;;;;;;5116866;28;20031;-40
2022/02/14 07:31:51;;;;;;;17.67;8.27;;;1.90;69.20;;;;;;5116267;28;20031;-40
2022/02/14 07:34:17;;;;;;;16.40;8.55;;;2.00;69.20;;;;;;5116528;28;20031;-35
2022/02/14 07:36:43;;;;;;;20.17;9.00;;;2.00;69.30;;;;;;5116559;28;20036;-39
2022/02/14 07:39:11;;;;;;;18.00;8.50;;;2.10;69.30;;;;;;5116618;28;20028;-36
2022/02/14 07:41:37;;;;;;;18.38;8.90;;;2.10;68.50;;;;;;5116872;28;20043;-39
2022/02/14 07:44:04;;;;;;;17.35;9.20;;;2.10;68.30;;;;;;5115080;28;20020;-35
2022/02/14 07:46:30;;;;;;;21.13;8.68;;;2.20;68.60;;;;;;5114550;28;20032;-40
2022/02/14 07:48:55;;;;;;;22.25;10.45;;;2.20;68.50;;;;;;5116709;28;20023;-41
2022/02/14 07:51:22;;;;;;;31.17;12.63;;;2.30;68.50;;;;;;5115772;28;20062;-36
2022/02/14 07:53:47;;;;;;;22.85;10.30;;;2.30;68.10;;;;;;5116131;28;20032;-36
2022/02/14 07:56:14;;;;;;;26.00;10.95;;;2.40;67.60;;;;;;5116477;28;20047;-35
2022/02/14 07:58:40;;;;;;;24.60;10.57;;;2.40;67.40;;;;;;5116411;28;20035;-35
2022/02/14 08:01:06;;;;;;;21.13;10.15;;;2.40;67.20;;;;;;5115325;28;20151;-39
2022/02/14 08:03:32;;;;;;;24.55;10.98;;;2.40;67.20;;;;;;5115477;28;20108;-39
2022/02/14 08:05:58;;;;;;;18.85;8.60;;;2.40;67.50;;;;;;5115399;28;20024;-41
2022/02/14 08:08:24;;;;;;;23.70;9.63;;;2.50;67.60;;;;;;5113561;27;20033;-36
2022/02/14 08:10:51;;;;;;;22.48;9.38;;;2.50;67.40;;;;;;5115798;28;20031;-38
2022/02/14 08:13:17;;;;;;;25.45;11.63;;;2.60;67.40;;;;;;5115586;28;20023;-36
2022/02/14 08:15:42;;;;;;;16.92;9.30;;;2.60;67.00;;;;;;5116257;28;20030;-37
2022/02/14 08:18:09;;;;;;;20.20;8.75;;;2.70;66.60;;;;;;5115873;28;20048;-36
2022/02/14 08:20:36;;;;;;;19.05;9.18;;;2.70;66.60;;;;;;5115951;28;20047;-35
2022/02/14 08:23:03;;;;;;;17.27;8.07;;;2.80;66.60;;;;;;5115617;28;20111;-36
2022/02/14 08:25:33;;;;;;;15.88;8.00;;;2.90;66.90;;;;;;5116225;28;20086;-36
2022/02/14 08:27:59;;;;;;;20.92;8.77;;;2.90;66.30;;;;;;5115420;28;20084;-36
2022/02/14 08:30:26;;;;;;;21.60;9.23;;;3.00;66.00;;;;;;5116004;28;20031;-38
2022/02/14 08:32:51;;;;;;;18.02;9.20;;;3.00;66.40;;;;;;5115353;28;20031;-36
2022/02/14 08:35:17;;;;;;;21.30;8.35;;;3.10;66.70;;;;;;5115906;28;20085;-41
2022/02/14 08:37:50;;;;;;;18.55;8.55;;;3.10;66.40;;;;;;5115184;28;20047;-40
2022/02/14 08:40:16;;;;;;;15.10;7.47;;;3.20;66.20;;;;;;5116011;28;20036;-39
2022/02/14 08:42:42;;;;;;;17.42;8.85;;;3.30;65.60;;;;;;5115222;28;20040;-35
2022/02/14 08:45:08;;;;;;;19.20;9.45;;;3.40;65.50;;;;;;5115247;28;20052;-35
2022/02/14 08:47:34;;;;;;;16.38;8.32;;;3.40;65.20;;;;;;5115274;28;20078;-36
2022/02/14 08:50:02;;;;;;;31.02;11.18;;;3.50;64.90;;;;;;5115048;28;20055;-35
2022/02/14 08:52:31;;;;;;;14.82;8.75;;;3.60;64.70;;;;;;5115816;28;20063;-35
2022/02/14 08:54:56;;;;;;;18.67;8.77;;;3.60;64.40;;;;;;5115807;28;20028;-38
2022/02/14 08:57:23;;;;;;;32.35;15.25;;;3.70;64.60;;;;;;5115586;28;20035;-39
2022/02/14 08:59:50;;;;;;;18.63;9.52;;;3.80;64.00;;;;;;5115947;28;20039;-38
2022/02/14 09:02:16;;;;;;;24.60;9.32;;;3.80;63.60;;;;;;5114496;28;20434;-36
2022/02/14 09:04:42;;;;;;;18.48;9.68;;;3.90;62.90;;;;;;5115625;28;20085;-36
2022/02/14 09:07:07;;;;;;;16.33;9.07;;;3.90;63.00;;;;;;5115391;28;20034;-39
2022/02/14 09:09:33;;;;;;;20.45;9.32;;;4.00;62.90;;;;;;5115114;28;20028;-36
2022/02/14 09:12:02;;;;;;;35.05;13.45;;;4.00;63.00;;;;;;5116639;28;20315;-36
2022/02/14 09:14:28;;;;;;;17.58;9.18;;;4.00;63.30;;;;;;5119796;28;20411;-40
2022/02/14 09:16:54;;;;;;;12.73;7.53;;;4.10;63.50;;;;;;5119061;28;20034;-35
2022/02/14 09:19:20;;;;;;;16.10;7.65;;;4.20;62.80;;;;;;5120038;28;20131;-35
2022/02/14 09:21:46;;;;;;;22.15;8.63;;;4.30;62.70;;;;;;5118186;28;20074;-38
2022/02/14 09:24:13;;;;;;;17.13;7.63;;;4.40;61.50;;;;;;5119659;28;20089;-40
2022/02/14 09:26:44;;;;;;;10.65;5.93;;;4.40;61.00;;;;;;5119302;28;20353;-40
2022/02/14 09:29:12;;;;;;;14.20;6.60;;;4.50;60.30;;;;;;5119836;28;20023;-40
2022/02/14 09:31:38;;;;;;;21.38;9.40;;;4.50;60.50;;;;;;5119082;28;20020;-38
2022/02/14 09:34:05;;;;;;;21.25;8.10;;;4.60;60.40;;;;;;5119174;28;20020;-35
2022/02/14 09:36:31;;;;;;;24.83;8.20;;;4.60;59.60;;;;;;5119490;28;20039;-35
2022/02/14 09:38:57;;;;;;;15.27;6.57;;;4.70;59.20;;;;;;5119167;28;20323;-39
2022/02/14 09:41:25;;;;;;;13.70;6.85;;;4.70;58.60;;;;;;5119507;28;20040;-39
2022/02/14 09:43:50;;;;;;;19.13;6.47;;;4.70;58.70;;;;;;5119189;27;20371;-36
2022/02/14 09:46:17;;;;;;;15.98;6.15;;;4.80;57.80;;;;;;5119211;28;20031;-35
2022/02/14 09:48:43;;;;;;;13.57;6.60;;;4.80;58.00;;;;;;5118965;27;20098;-40
2022/02/14 09:51:11;;;;;;;14.52;5.68;;;4.90;57.00;;;;;;5118869;28;20055;-40
2022/02/14 09:53:38;;;;;;;10.98;6.68;;;4.90;56.30;;;;;;5118997;28;20066;-35
2022/02/14 09:56:04;;;;;;;8.65;4.90;;;4.90;56.40;;;;;;5119339;28;20023;-38
2022/02/14 09:58:30;;;;;;;14.80;6.60;;;5.00;55.80;;;;;;5119085;27;20104;-39
2022/02/14 10:00:56;;;;;;;13.95;5.82;;;5.00;56.40;;;;;;5118818;28;20036;-40
2022/02/14 10:03:23;;;;;;;11.20;4.95;;;5.10;56.60;;;;;;5118603;28;20036;-39
2022/02/14 10:05:54;;;;;;;18.33;6.32;;;5.10;55.80;;;;;;5118968;28;20031;-39
2022/02/14 10:08:25;;;;;;;10.35;4.85;;;5.20;55.70;;;;;;5118432;28;20115;-40
2022/02/14 10:10:52;;;;;;;13.30;4.85;;;5.20;55.20;;;;;;5118839;28;20031;-36
2022/02/14 10:13:35;;;;;;;13.15;5.90;;;5.20;53.40;;;;;;5118548;28;20033;-36
2022/02/14 10:16:20;;;;;;;10.93;5.20;;;5.30;53.50;;;;;;5118647;28;20024;-35
2022/02/14 10:18:46;;;;;;;14.85;5.85;;;5.30;53.80;;;;;;5118769;28;20055;-35
2022/02/14 10:21:23;;;;;;;10.65;4.57;;;5.30;53.70;;;;;;5118807;28;20052;-39
2022/02/14 10:24:04;;;;;;;11.48;4.70;;;5.40;53.60;;;;;;5118475;28;20031;-40
2022/02/14 10:26:40;;;;;;;8.77;4.63;;;5.40;53.00;;;;;;5118897;28;20438;-40
2022/02/14 10:29:14;;;;;;;10.68;4.55;;;5.40;52.20;;;;;;5118452;28;20292;-41
2022/02/14 10:31:42;;;;;;;12.00;5.28;;;5.50;52.70;;;;;;5118125;28;20041;-36
2022/02/14 10:34:08;;;;;;;5.97;3.85;;;5.50;52.20;;;;;;5118409;28;20027;-40
2022/02/14 10:36:37;;;;;;;19.52;5.68;;;5.50;52.30;;;;;;5118227;28;20492;-39
2022/02/14 10:39:19;;;;;;;7.43;4.38;;;5.60;52.80;;;;;;5118066;27;20036;-36
2022/02/14 10:41:50;;;;;;;14.73;4.63;;;5.70;52.40;;;;;;5117483;28;20092;-40
2022/02/14 10:47:31;;;;;;;8.20;4.60;;;5.70;51.10;;;;;;5117613;28;20035;-36
2022/02/14 10:50:03;;;;;;;6.53;3.87;;;5.70;51.50;;;;;;5105801;28;20051;-36
2022/02/14 10:52:38;;;;;;;11.98;4.63;;;5.70;51.40;;;;;;5118013;28;20034;-36
2022/02/14 10:55:07;;;;;;;12.27;4.97;;;5.80;51.90;;;;;;5118167;28;20036;-40
2022/02/14 10:57:38;;;;;;;10.93;4.70;;;5.80;50.70;;;;;;5117685;28;20035;-40
2022/02/14 11:00:11;;;;;;;16.98;5.25;;;5.80;50.70;;;;;;5117594;28;20063;-36
2022/02/14 11:02:40;;;;;;;9.00;4.22;;;5.90;50.30;;;;;;5117488;28;20028;-36
2022/02/14 11:05:06;;;;;;;7.55;4.32;;;5.90;50.80;;;;;;5117477;28;20035;-39
2022/02/14 11:07:32;;;;;;;7.65;3.90;;;6.00;49.90;;;;;;5117235;28;20031;-39
2022/02/14 11:10:00;;;;;;;9.93;4.50;;;6.00;49.40;;;;;;5117446;28;20031;-36
2022/02/14 11:12:29;;;;;;;7.47;4.15;;;6.10;50.30;;;;;;5116047;28;20316;-41
2022/02/14 11:14:56;;;;;;;11.45;4.25;;;6.20;50.20;;;;;;5117389;28;20315;-35
2022/02/14 11:17:27;;;;;;;7.18;4.28;;;6.20;49.80;;;;;;5117234;28;20369;-36
2022/02/14 11:19:54;;;;;;;;;;;6.30;49.70;;;;;;5117422;28;20027;-36
2022/02/14 11:22:22;;;;;;;11.38;4.50;;;6.40;50.10;;;;;;5117144;28;19915;-36
2022/02/14 11:24:59;;;;;;;9.95;4.40;;;6.40;50.20;;;;;;5114148;28;20032;-36
2022/02/14 11:27:29;;;;;;;10.77;4.60;;;6.50;49.30;;;;;;5115910;28;20362;-36
2022/02/14 11:30:00;;;;;;;6.40;3.47;;;6.60;48.10;;;;;;5116433;28;20099;-39
2022/02/14 11:32:26;;;;;;;;;;;6.60;48.00;;;;;;5117182;28;20306;-36
2022/02/14 11:34:53;;;;;;;9.43;3.33;;;6.70;48.00;;;;;;5115910;28;19908;-36
2022/02/14 11:37:19;;;;;;;9.60;4.35;;;6.70;47.70;;;;;;5115513;28;20030;-36
2022/02/14 11:39:44;;;;;;;8.30;3.45;;;6.80;47.10;;;;;;5116362;28;20036;-41
2022/02/14 11:42:10;;;;;;;15.52;4.13;;;6.90;47.00;;;;;;5116441;28;20024;-40
2022/02/14 11:44:36;;;;;;;11.52;5.68;;;6.90;46.80;;;;;;5116591;28;20031;-42
2022/02/14 11:47:03;;;;;;;7.32;3.45;;;7.00;46.50;;;;;;5115981;28;20035;-47
2022/02/14 11:49:46;;;;;;;8.15;3.50;;;7.10;46.30;;;;;;5115148;28;20038;-42
2022/02/14 11:52:29;;;;;;;6.05;3.30;;;7.20;45.20;;;;;;5115977;28;20078;-43
2022/02/14 11:54:56;;;;;;;13.88;4.53;;;7.20;45.40;;;;;;5115603;28;20023;-42
2022/02/14 11:57:31;;;;;;;12.10;5.03;;;7.30;45.20;;;;;;5113528;28;20023;-43
2022/02/14 12:00:15;;;;;;;9.35;3.80;;;7.40;44.50;;;;;;5116342;28;20035;-42
2022/02/14 12:02:54;;;;;;;8.45;3.58;;;7.50;44.90;;;;;;5114592;28;20039;-43
2022/02/14 12:05:57;;;;;;;8.30;4.07;;;7.50;44.90;;;;;;5116171;28;20539;-37
2022/02/14 12:08:22;;;;;;;5.60;2.90;;;7.60;45.00;;;;;;5116015;28;20023;-37
2022/02/14 12:10:55;;;;;;;9.20;4.43;;;7.70;44.10;;;;;;5115931;28;20032;-37
2022/02/14 12:13:30;;;;;;;11.43;3.72;;;7.80;44.30;;;;;;5115855;28;20032;-37
2022/02/14 12:21:18;;;;;;;9.77;4.50;;;8.00;43.40;;;;;;5116258;28;20446;-37
2022/02/14 12:23:56;;;;;;;4.07;2.80;;;8.00;42.70;;;;;;5114573;28;20045;-42
2022/02/14 12:26:31;;;;;;;7.53;3.80;;;8.00;42.00;;;;;;5115568;28;20331;-42
2022/02/14 12:31:51;;;;;;;10.68;3.42;;;8.10;41.60;;;;;;5115170;28;20039;-44
2022/02/14 12:34:33;;;;;;;7.70;3.65;;;8.10;42.30;;;;;;5116109;28;20023;-37
2022/02/14 12:37:04;;;;;;;12.65;3.70;;;8.20;41.20;;;;;;5113514;28;20427;-37
2022/02/14 12:39:34;;;;;;;9.10;5.07;;;8.20;42.10;;;;;;5116304;28;20084;-37
2022/02/14 12:42:13;;;;;;;15.10;5.15;;;8.30;41.80;;;;;;5115118;28;20038;-37
2022/02/14 12:44:40;;;;;;;15.55;4.45;;;8.40;42.90;;;;;;5115845;28;20040;-37
2022/02/14 12:47:06;;;;;;;10.02;4.30;;;8.50;42.60;;;;;;5114400;28;20027;-37
2022/02/14 12:49:32;;;;;;;21.10;5.72;;;8.70;41.30;;;;;;5116211;28;20307;-42
2022/02/14 12:52:17;;;;;;;7.78;3.10;;;8.80;41.00;;;;;;5114470;28;20301;-37
2022/02/14 12:54:57;;;;;;;14.00;4.25;;;8.80;40.60;;;;;;5116081;28;20032;-37
2022/02/14 12:57:40;;;;;;;8.85;4.72;;;8.90;41.70;;;;;;5115461;28;20446;-42
2022/02/14 13:00:24;;;;;;;14.10;4.25;;;9.10;41.20;;;;;;5113966;28;20055;-43